Terminal Aerodrome Forecast
Issued by NWS Burlington, VT

Home | Current Version | Previous Version | Text Only | Print | Product List | Glossary On
Versions: 1 2 3 4 5 6 7 8 9 10 11 12 13 14 15 16 17 18 19 20 21
000
FTUS41 KBTV 172106 AAD
TAFBTV
TAF AMD
KBTV 172106Z 1721/1818 VRB05KT 6SM -SN BKN035 OVC045
     FM180000 23004KT 6SM BR BKN080
     FM180600 22004KT P6SM SCT100
     FM181000 21006KT P6SM BKN070=

USA.gov is the U.S. government's official web portal to all federal, state and local government web resources and services.